Patricia Anne — WDF9428 — position and weather

sailwx.info

Track history (hours):
 
Tides and Currents Weather Stations Pressure Air Temp Water Temp Dewpoint Dewpoint Depression Visibility Wind Speed Wind Dir Waves Ship Positions

Patricia Anne

Owner: Genesis Marine, LLC, Houston, TX. More information available from US FCC via Universal Licensing System and Coast Guard Vessel Documentation Center.

Last reported at 2017-Dec-11 16:26 UTC. Time now 2017-Dec-13 22:28 UTC.
Position N 30°02' W 094°02'.

Length 26 m; draft 3 m.

Type: Towing. MMSI: 367505060.

Date/timePositionNaut miles runAvg speedWind from/ knotsBaromVisibWave heightAir tempDewpointWater temp
2017-Dec-11 16:26N 30°02' W 094°02'0 0.0
2017-Dec-11 14:25N 30°02' W 094°02'0 0.0
2017-Dec-11 13:59N 30°02' W 094°02'0 0.0
2017-Dec-11 12:11N 30°02' W 094°02'0 0.0
2017-Dec-11 11:55N 30°02' W 094°02'0 0.0
2017-Dec-11 07:14N 30°02' W 094°02'0 0.0
2017-Dec-11 06:46N 30°02' W 094°02'0 0.0
2017-Dec-11 06:30N 30°02' W 094°02'0 0.0
2017-Dec-10 15:41N 30°02' W 094°02'  
2017-Dec-07 21:08N 30°04' W 093°37'1 5.5
2017-Dec-07 20:54N 30°04' W 093°36'2 5.3
2017-Dec-07 20:29N 30°04' W 093°33'2 4.8
2017-Dec-07 20:00N 30°04' W 093°30'1 2.8
2017-Dec-07 19:30N 30°04' W 093°29'2 4.5
2017-Dec-07 19:00N 30°04' W 093°26'2 4.6
2017-Dec-07 18:30N 30°04' W 093°23'2 4.2
2017-Dec-07 18:00N 30°04' W 093°21'1 1.7
2017-Dec-07 17:30N 30°04' W 093°20'0 0.0
2017-Dec-07 17:00N 30°04' W 093°20'0 0.0
2017-Dec-07 16:30N 30°04' W 093°20'0 0.0
2017-Dec-07 16:00N 30°04' W 093°20'0 0.0
2017-Dec-07 15:30N 30°04' W 093°20'0 0.0
2017-Dec-07 15:00N 30°04' W 093°20'0 0.0
2017-Dec-07 14:30N 30°04' W 093°20'0 0.0
2017-Dec-07 14:00N 30°04' W 093°20'0 0.0
2017-Dec-07 13:30N 30°04' W 093°20'0 0.0
2017-Dec-07 13:00N 30°04' W 093°20'0 0.0
2017-Dec-07 12:30N 30°04' W 093°20'0 0.0
2017-Dec-07 12:00N 30°04' W 093°20'0 0.0
2017-Dec-07 11:30N 30°04' W 093°20'0 0.0
2017-Dec-07 11:00N 30°04' W 093°20'2 3.3
2017-Dec-07 10:30N 30°06' W 093°20'3 6.3
2017-Dec-07 10:00N 30°09' W 093°20'2 4.7
2017-Dec-07 09:30N 30°11' W 093°19'2 3.8
2017-Dec-07 09:00N 30°09' W 093°20'3 5.9
2017-Dec-07 08:30N 30°06' W 093°20'1 2.7
2017-Dec-07 08:00N 30°05' W 093°20'1 1.9
2017-Dec-07 07:30N 30°04' W 093°20'0 0.0
2017-Dec-07 07:00N 30°04' W 093°20'0 0.0
2017-Dec-07 06:30N 30°04' W 093°20'0 0.0
2017-Dec-07 06:00N 30°04' W 093°20'0 0.0
2017-Dec-07 05:30N 30°04' W 093°20'0 0.0
2017-Dec-07 05:00N 30°04' W 093°20'0 0.0
2017-Dec-07 04:30N 30°04' W 093°20'0 0.0
2017-Dec-07 04:00N 30°04' W 093°20'0 0.0
2017-Dec-07 03:30N 30°04' W 093°20'0 0.0
2017-Dec-07 03:00N 30°04' W 093°20'0 0.0
2017-Dec-07 02:30N 30°04' W 093°20'0 0.0
2017-Dec-07 02:00N 30°04' W 093°20'0 0.0
2017-Dec-06 23:11N 30°04' W 093°20'0 0.0
2017-Dec-06 23:00N 30°04' W 093°20'0 0.0
2017-Dec-06 22:30N 30°04' W 093°20'0 0.0
2017-Dec-06 22:00N 30°04' W 093°20'0 0.0
2017-Dec-06 21:30N 30°04' W 093°20'0 0.0
2017-Dec-06 21:00N 30°04' W 093°20'  
2017-Dec-04 10:30N 30°06' W 093°19'0 0.0
2017-Dec-04 10:00N 30°06' W 093°19'0 0.0
2017-Dec-04 09:30N 30°06' W 093°19'0 0.0
2017-Dec-04 09:00N 30°06' W 093°19'0 0.0
2017-Dec-04 08:30N 30°06' W 093°19'0 0.0
2017-Dec-04 08:00N 30°06' W 093°19'0 0.0
2017-Dec-04 07:30N 30°06' W 093°19'0 0.0
2017-Dec-04 07:00N 30°06' W 093°19'0 0.0
2017-Dec-04 06:30N 30°06' W 093°19'0 0.0
2017-Dec-04 06:00N 30°06' W 093°19'0 0.0
2017-Dec-04 05:30N 30°06' W 093°19'0 0.0
2017-Dec-04 05:00N 30°06' W 093°19'0 0.0
2017-Dec-04 04:30N 30°06' W 093°19'0 0.0
2017-Dec-04 04:00N 30°06' W 093°19'0 0.0
2017-Dec-04 03:30N 30°06' W 093°19'0 0.0
2017-Dec-04 03:00N 30°06' W 093°19'0 0.0
2017-Dec-04 02:30N 30°06' W 093°19'0 0.0
2017-Dec-04 02:00N 30°06' W 093°19'1 1.1
2017-Dec-04 01:30N 30°06' W 093°19'2 4.9
2017-Dec-04 01:00N 30°08' W 093°19'0 0.2
2017-Dec-04 00:30N 30°08' W 093°19'0 0.0
2017-Dec-03 23:59N 30°08' W 093°19'0 0.0
2017-Dec-03 23:27N 30°08' W 093°19'0 0.0
2017-Dec-03 22:56N 30°08' W 093°19'0 0.0
2017-Dec-03 22:30N 30°08' W 093°19'0 0.0
2017-Dec-03 22:00N 30°08' W 093°19'0 0.0
2017-Dec-03 21:30N 30°08' W 093°19'0 0.0
2017-Dec-03 21:00N 30°08' W 093°19'0 0.0
2017-Dec-03 20:30N 30°08' W 093°19'0 0.0
2017-Dec-03 20:00N 30°08' W 093°19'0 0.0
2017-Dec-03 19:30N 30°08' W 093°19'0 0.0
2017-Dec-03 19:00N 30°08' W 093°19'0 0.0
2017-Dec-03 18:30N 30°08' W 093°19'0 0.0
2017-Dec-03 18:00N 30°08' W 093°19'0 0.0
2017-Dec-03 17:30N 30°08' W 093°19'0 0.0
2017-Dec-03 17:00N 30°08' W 093°19'0 0.0
2017-Dec-03 16:30N 30°08' W 093°19'0 0.0
2017-Dec-03 16:00N 30°08' W 093°19'0 0.0
2017-Dec-03 15:30N 30°08' W 093°19'0 0.0
2017-Dec-03 15:00N 30°08' W 093°19'0 0.0
2017-Dec-03 14:26N 30°08' W 093°19'0 0.0
2017-Dec-03 13:58N 30°08' W 093°19'0 0.0
2017-Dec-03 13:16N 30°08' W 093°19'0 0.0
2017-Dec-03 12:58N 30°08' W 093°19'0 0.0
2017-Dec-03 12:29N 30°08' W 093°19'0 0.0
2017-Dec-03 12:00N 30°08' W 093°19'0 0.0
2017-Dec-03 11:30N 30°08' W 093°19'0 0.0
2017-Dec-03 10:54N 30°08' W 093°19'0 0.0
2017-Dec-03 10:30N 30°08' W 093°19'0 0.0
2017-Dec-03 10:00N 30°08' W 093°19'0 0.0
2017-Dec-03 09:30N 30°08' W 093°19'0 0.0
2017-Dec-03 08:57N 30°08' W 093°19'0 0.0
2017-Dec-03 08:30N 30°08' W 093°19'0 0.0
2017-Dec-03 08:00N 30°08' W 093°19'0 0.0
2017-Dec-03 07:30N 30°08' W 093°19'0 0.0
2017-Dec-03 06:51N 30°08' W 093°19'0 0.0
2017-Dec-03 06:30N 30°08' W 093°19'0 0.0
2017-Dec-03 05:56N 30°08' W 093°19'0 0.0
2017-Dec-03 05:30N 30°08' W 093°19'0 0.0
2017-Dec-03 04:55N 30°08' W 093°19'0 0.0
2017-Dec-03 04:30N 30°08' W 093°19'0 0.0
2017-Dec-03 03:55N 30°08' W 093°19'0 0.0
2017-Dec-03 03:30N 30°08' W 093°19'0 0.0
2017-Dec-03 02:55N 30°08' W 093°19'0 0.0
2017-Dec-03 02:26N 30°08' W 093°19'0 0.0
2017-Dec-03 02:00N 30°08' W 093°19'0 0.0
2017-Dec-03 01:30N 30°08' W 093°19'0 0.1
2017-Dec-03 01:00N 30°08' W 093°19'1 1.7
2017-Dec-03 00:30N 30°07' W 093°20'2 3.8
2017-Dec-03 00:00N 30°06' W 093°20'1 1.4
2017-Dec-02 23:30N 30°05' W 093°20'0 0.4
2017-Dec-02 23:00N 30°05' W 093°20'0 0.8
2017-Dec-02 22:31N 30°05' W 093°20'0 0.0
2017-Dec-02 22:00N 30°05' W 093°20'0 0.0
2017-Dec-02 21:30N 30°05' W 093°20'0 0.0
2017-Dec-02 21:00N 30°05' W 093°20'0 0.0
2017-Dec-02 20:30N 30°05' W 093°20'0 0.0
2017-Dec-02 20:00N 30°05' W 093°20'0 0.0
2017-Dec-02 19:30N 30°05' W 093°20'0 0.0
2017-Dec-02 19:00N 30°05' W 093°20'0 0.8
2017-Dec-02 18:30N 30°05' W 093°20'0 0.0
2017-Dec-02 18:01N 30°05' W 093°20'0 0.8
2017-Dec-02 17:30N 30°05' W 093°20'0 0.8
2017-Dec-02 17:00N 30°05' W 093°20'0 0.0
2017-Dec-02 16:30N 30°05' W 093°20'0 0.0
2017-Dec-02 16:01N 30°05' W 093°20'0 0.0
2017-Dec-02 15:30N 30°05' W 093°20'0 0.0
2017-Dec-02 14:59N 30°05' W 093°20'0 0.0
2017-Dec-02 14:30N 30°05' W 093°20'0 0.0
2017-Dec-02 14:00N 30°05' W 093°20'0 0.0
2017-Dec-02 13:30N 30°05' W 093°20'0 0.0
2017-Dec-02 13:00N 30°05' W 093°20'0 0.0
2017-Dec-02 12:30N 30°05' W 093°20'0 0.0
2017-Dec-02 12:00N 30°05' W 093°20'0 0.0
2017-Dec-02 11:30N 30°05' W 093°20'0 0.0
2017-Dec-02 11:00N 30°05' W 093°20'0 0.0
2017-Dec-02 10:30N 30°05' W 093°20'0 0.0
2017-Dec-02 10:00N 30°05' W 093°20'0 0.0
2017-Dec-02 09:30N 30°05' W 093°20'0 0.0
2017-Dec-02 09:00N 30°05' W 093°20'0 0.0
2017-Dec-02 08:30N 30°05' W 093°20'0 0.0
2017-Dec-02 08:00N 30°05' W 093°20'0 0.0
2017-Dec-02 07:30N 30°05' W 093°20'0 0.0
2017-Dec-02 07:00N 30°05' W 093°20'0 0.0
2017-Dec-02 06:30N 30°05' W 093°20'0 0.0
2017-Dec-02 06:00N 30°05' W 093°20'0 0.0
2017-Dec-02 05:30N 30°05' W 093°20'0 0.0
2017-Dec-02 05:00N 30°05' W 093°20'0 0.0
2017-Dec-02 04:30N 30°05' W 093°20'0 0.0
2017-Dec-02 04:00N 30°05' W 093°20'0 0.0
2017-Dec-02 03:30N 30°05' W 093°20'0 0.0
2017-Dec-02 03:00N 30°05' W 093°20'0 0.0
2017-Dec-02 02:30N 30°05' W 093°20'0 0.0
2017-Dec-02 02:00N 30°05' W 093°20'0 0.0
2017-Dec-02 01:30N 30°05' W 093°20'0 0.0
2017-Dec-02 01:00N 30°05' W 093°20'0 0.0
2017-Dec-02 00:30N 30°05' W 093°20'0 0.0
2017-Dec-02 00:00N 30°05' W 093°20'0 0.0
2017-Dec-01 23:30N 30°05' W 093°20'0 0.0
2017-Dec-01 23:00N 30°05' W 093°20'0 0.0
2017-Dec-01 22:30N 30°05' W 093°20'0 0.0
2017-Dec-01 22:00N 30°05' W 093°20'0 0.0
2017-Dec-01 21:30N 30°05' W 093°20'0 0.0
2017-Dec-01 21:00N 30°05' W 093°20'0 0.0
2017-Dec-01 20:30N 30°05' W 093°20'0 0.0
2017-Dec-01 20:00N 30°05' W 093°20'0 0.0
2017-Dec-01 19:30N 30°05' W 093°20'0 0.0
2017-Dec-01 19:00N 30°05' W 093°20'0 0.0
2017-Dec-01 18:30N 30°05' W 093°20'0 0.0
2017-Dec-01 18:00N 30°05' W 093°20'0 0.0
2017-Dec-01 17:30N 30°05' W 093°20'0 0.0
2017-Dec-01 17:00N 30°05' W 093°20'0 0.0
2017-Dec-01 16:30N 30°05' W 093°20'  
Track history (hours):
 
Tides and Currents Weather Stations Pressure Air Temp Water Temp Dewpoint Dewpoint Depression Visibility Wind Speed Wind Dir Waves Ship Positions

Patricia Anne

Owner: Genesis Marine, LLC, Houston, TX. More information available from US FCC via Universal Licensing System and Coast Guard Vessel Documentation Center.

Last reported at 2017-Dec-11 16:26 UTC. Time now 2017-Dec-13 22:28 UTC.
Position N 30°02' W 094°02'.

Length 26 m; draft 3 m.

Type: Towing. MMSI: 367505060.

Date/timePositionNaut miles runAvg speedWind from/ knotsBaromVisibWave heightAir tempDewpointWater temp
2017-Dec-11 16:26N 30°02' W 094°02'0 0.0
2017-Dec-11 14:25N 30°02' W 094°02'0 0.0
2017-Dec-11 13:59N 30°02' W 094°02'0 0.0
2017-Dec-11 12:11N 30°02' W 094°02'0 0.0
2017-Dec-11 11:55N 30°02' W 094°02'0 0.0
2017-Dec-11 07:14N 30°02' W 094°02'0 0.0
2017-Dec-11 06:46N 30°02' W 094°02'0 0.0
2017-Dec-11 06:30N 30°02' W 094°02'0 0.0
2017-Dec-10 15:41N 30°02' W 094°02'  
2017-Dec-07 21:08N 30°04' W 093°37'1 5.5
2017-Dec-07 20:54N 30°04' W 093°36'2 5.3
2017-Dec-07 20:29N 30°04' W 093°33'2 4.8
2017-Dec-07 20:00N 30°04' W 093°30'1 2.8
2017-Dec-07 19:30N 30°04' W 093°29'2 4.5
2017-Dec-07 19:00N 30°04' W 093°26'2 4.6
2017-Dec-07 18:30N 30°04' W 093°23'2 4.2
2017-Dec-07 18:00N 30°04' W 093°21'1 1.7
2017-Dec-07 17:30N 30°04' W 093°20'0 0.0
2017-Dec-07 17:00N 30°04' W 093°20'0 0.0
2017-Dec-07 16:30N 30°04' W 093°20'0 0.0
2017-Dec-07 16:00N 30°04' W 093°20'0 0.0
2017-Dec-07 15:30N 30°04' W 093°20'0 0.0
2017-Dec-07 15:00N 30°04' W 093°20'0 0.0
2017-Dec-07 14:30N 30°04' W 093°20'0 0.0
2017-Dec-07 14:00N 30°04' W 093°20'0 0.0
2017-Dec-07 13:30N 30°04' W 093°20'0 0.0
2017-Dec-07 13:00N 30°04' W 093°20'0 0.0
2017-Dec-07 12:30N 30°04' W 093°20'0 0.0
2017-Dec-07 12:00N 30°04' W 093°20'0 0.0
2017-Dec-07 11:30N 30°04' W 093°20'0 0.0
2017-Dec-07 11:00N 30°04' W 093°20'2 3.3
2017-Dec-07 10:30N 30°06' W 093°20'3 6.3
2017-Dec-07 10:00N 30°09' W 093°20'2 4.7
2017-Dec-07 09:30N 30°11' W 093°19'2 3.8
2017-Dec-07 09:00N 30°09' W 093°20'3 5.9
2017-Dec-07 08:30N 30°06' W 093°20'1 2.7
2017-Dec-07 08:00N 30°05' W 093°20'1 1.9
2017-Dec-07 07:30N 30°04' W 093°20'0 0.0
2017-Dec-07 07:00N 30°04' W 093°20'0 0.0
2017-Dec-07 06:30N 30°04' W 093°20'0 0.0
2017-Dec-07 06:00N 30°04' W 093°20'0 0.0
2017-Dec-07 05:30N 30°04' W 093°20'0 0.0
2017-Dec-07 05:00N 30°04' W 093°20'0 0.0
2017-Dec-07 04:30N 30°04' W 093°20'0 0.0
2017-Dec-07 04:00N 30°04' W 093°20'0 0.0
2017-Dec-07 03:30N 30°04' W 093°20'0 0.0
2017-Dec-07 03:00N 30°04' W 093°20'0 0.0
2017-Dec-07 02:30N 30°04' W 093°20'0 0.0
2017-Dec-07 02:00N 30°04' W 093°20'0 0.0
2017-Dec-06 23:11N 30°04' W 093°20'0 0.0
2017-Dec-06 23:00N 30°04' W 093°20'0 0.0
2017-Dec-06 22:30N 30°04' W 093°20'0 0.0
2017-Dec-06 22:00N 30°04' W 093°20'0 0.0
2017-Dec-06 21:30N 30°04' W 093°20'0 0.0
2017-Dec-06 21:00N 30°04' W 093°20'  
2017-Dec-04 10:30N 30°06' W 093°19'0 0.0
2017-Dec-04 10:00N 30°06' W 093°19'0 0.0
2017-Dec-04 09:30N 30°06' W 093°19'0 0.0
2017-Dec-04 09:00N 30°06' W 093°19'0 0.0
2017-Dec-04 08:30N 30°06' W 093°19'0 0.0
2017-Dec-04 08:00N 30°06' W 093°19'0 0.0
2017-Dec-04 07:30N 30°06' W 093°19'0 0.0
2017-Dec-04 07:00N 30°06' W 093°19'0 0.0
2017-Dec-04 06:30N 30°06' W 093°19'0 0.0
2017-Dec-04 06:00N 30°06' W 093°19'0 0.0
2017-Dec-04 05:30N 30°06' W 093°19'0 0.0
2017-Dec-04 05:00N 30°06' W 093°19'0 0.0
2017-Dec-04 04:30N 30°06' W 093°19'0 0.0
2017-Dec-04 04:00N 30°06' W 093°19'0 0.0
2017-Dec-04 03:30N 30°06' W 093°19'0 0.0
2017-Dec-04 03:00N 30°06' W 093°19'0 0.0
2017-Dec-04 02:30N 30°06' W 093°19'0 0.0
2017-Dec-04 02:00N 30°06' W 093°19'1 1.1
2017-Dec-04 01:30N 30°06' W 093°19'2 4.9
2017-Dec-04 01:00N 30°08' W 093°19'0 0.2
2017-Dec-04 00:30N 30°08' W 093°19'0 0.0
2017-Dec-03 23:59N 30°08' W 093°19'0 0.0
2017-Dec-03 23:27N 30°08' W 093°19'0 0.0
2017-Dec-03 22:56N 30°08' W 093°19'0 0.0
2017-Dec-03 22:30N 30°08' W 093°19'0 0.0
2017-Dec-03 22:00N 30°08' W 093°19'0 0.0
2017-Dec-03 21:30N 30°08' W 093°19'0 0.0
2017-Dec-03 21:00N 30°08' W 093°19'0 0.0
2017-Dec-03 20:30N 30°08' W 093°19'0 0.0
2017-Dec-03 20:00N 30°08' W 093°19'0 0.0
2017-Dec-03 19:30N 30°08' W 093°19'0 0.0
2017-Dec-03 19:00N 30°08' W 093°19'0 0.0
2017-Dec-03 18:30N 30°08' W 093°19'0 0.0
2017-Dec-03 18:00N 30°08' W 093°19'0 0.0
2017-Dec-03 17:30N 30°08' W 093°19'0 0.0
2017-Dec-03 17:00N 30°08' W 093°19'0 0.0
2017-Dec-03 16:30N 30°08' W 093°19'0 0.0
2017-Dec-03 16:00N 30°08' W 093°19'0 0.0
2017-Dec-03 15:30N 30°08' W 093°19'0 0.0
2017-Dec-03 15:00N 30°08' W 093°19'0 0.0
2017-Dec-03 14:26N 30°08' W 093°19'0 0.0
2017-Dec-03 13:58N 30°08' W 093°19'0 0.0
2017-Dec-03 13:16N 30°08' W 093°19'0 0.0
2017-Dec-03 12:58N 30°08' W 093°19'0 0.0
2017-Dec-03 12:29N 30°08' W 093°19'0 0.0
2017-Dec-03 12:00N 30°08' W 093°19'0 0.0
2017-Dec-03 11:30N 30°08' W 093°19'0 0.0
2017-Dec-03 10:54N 30°08' W 093°19'0 0.0
2017-Dec-03 10:30N 30°08' W 093°19'0 0.0
2017-Dec-03 10:00N 30°08' W 093°19'0 0.0
2017-Dec-03 09:30N 30°08' W 093°19'0 0.0
2017-Dec-03 08:57N 30°08' W 093°19'0 0.0
2017-Dec-03 08:30N 30°08' W 093°19'0 0.0
2017-Dec-03 08:00N 30°08' W 093°19'0 0.0
2017-Dec-03 07:30N 30°08' W 093°19'0 0.0
2017-Dec-03 06:51N 30°08' W 093°19'0 0.0
2017-Dec-03 06:30N 30°08' W 093°19'0 0.0
2017-Dec-03 05:56N 30°08' W 093°19'0 0.0
2017-Dec-03 05:30N 30°08' W 093°19'0 0.0
2017-Dec-03 04:55N 30°08' W 093°19'0 0.0
2017-Dec-03 04:30N 30°08' W 093°19'0 0.0
2017-Dec-03 03:55N 30°08' W 093°19'0 0.0
2017-Dec-03 03:30N 30°08' W 093°19'0 0.0
2017-Dec-03 02:55N 30°08' W 093°19'0 0.0
2017-Dec-03 02:26N 30°08' W 093°19'0 0.0
2017-Dec-03 02:00N 30°08' W 093°19'0 0.0
2017-Dec-03 01:30N 30°08' W 093°19'0 0.1
2017-Dec-03 01:00N 30°08' W 093°19'1 1.7
2017-Dec-03 00:30N 30°07' W 093°20'2 3.8
2017-Dec-03 00:00N 30°06' W 093°20'1 1.4
2017-Dec-02 23:30N 30°05' W 093°20'0 0.4
2017-Dec-02 23:00N 30°05' W 093°20'0 0.8
2017-Dec-02 22:31N 30°05' W 093°20'0 0.0
2017-Dec-02 22:00N 30°05' W 093°20'0 0.0
2017-Dec-02 21:30N 30°05' W 093°20'0 0.0
2017-Dec-02 21:00N 30°05' W 093°20'0 0.0
2017-Dec-02 20:30N 30°05' W 093°20'0 0.0
2017-Dec-02 20:00N 30°05' W 093°20'0 0.0
2017-Dec-02 19:30N 30°05' W 093°20'0 0.0
2017-Dec-02 19:00N 30°05' W 093°20'0 0.8
2017-Dec-02 18:30N 30°05' W 093°20'0 0.0
2017-Dec-02 18:01N 30°05' W 093°20'0 0.8
2017-Dec-02 17:30N 30°05' W 093°20'0 0.8
2017-Dec-02 17:00N 30°05' W 093°20'0 0.0
2017-Dec-02 16:30N 30°05' W 093°20'0 0.0
2017-Dec-02 16:01N 30°05' W 093°20'0 0.0
2017-Dec-02 15:30N 30°05' W 093°20'0 0.0
2017-Dec-02 14:59N 30°05' W 093°20'0 0.0
2017-Dec-02 14:30N 30°05' W 093°20'0 0.0
2017-Dec-02 14:00N 30°05' W 093°20'0 0.0
2017-Dec-02 13:30N 30°05' W 093°20'0 0.0
2017-Dec-02 13:00N 30°05' W 093°20'0 0.0
2017-Dec-02 12:30N 30°05' W 093°20'0 0.0
2017-Dec-02 12:00N 30°05' W 093°20'0 0.0
2017-Dec-02 11:30N 30°05' W 093°20'0 0.0
2017-Dec-02 11:00N 30°05' W 093°20'0 0.0
2017-Dec-02 10:30N 30°05' W 093°20'0 0.0
2017-Dec-02 10:00N 30°05' W 093°20'0 0.0
2017-Dec-02 09:30N 30°05' W 093°20'0 0.0
2017-Dec-02 09:00N 30°05' W 093°20'0 0.0
2017-Dec-02 08:30N 30°05' W 093°20'0 0.0
2017-Dec-02 08:00N 30°05' W 093°20'0 0.0
2017-Dec-02 07:30N 30°05' W 093°20'0 0.0
2017-Dec-02 07:00N 30°05' W 093°20'0 0.0
2017-Dec-02 06:30N 30°05' W 093°20'0 0.0
2017-Dec-02 06:00N 30°05' W 093°20'0 0.0
2017-Dec-02 05:30N 30°05' W 093°20'0 0.0
2017-Dec-02 05:00N 30°05' W 093°20'0 0.0
2017-Dec-02 04:30N 30°05' W 093°20'0 0.0
2017-Dec-02 04:00N 30°05' W 093°20'0 0.0
2017-Dec-02 03:30N 30°05' W 093°20'0 0.0
2017-Dec-02 03:00N 30°05' W 093°20'0 0.0
2017-Dec-02 02:30N 30°05' W 093°20'0 0.0
2017-Dec-02 02:00N 30°05' W 093°20'0 0.0
2017-Dec-02 01:30N 30°05' W 093°20'0 0.0
2017-Dec-02 01:00N 30°05' W 093°20'0 0.0
2017-Dec-02 00:30N 30°05' W 093°20'0 0.0
2017-Dec-02 00:00N 30°05' W 093°20'0 0.0
2017-Dec-01 23:30N 30°05' W 093°20'0 0.0
2017-Dec-01 23:00N 30°05' W 093°20'0 0.0
2017-Dec-01 22:30N 30°05' W 093°20'0 0.0
2017-Dec-01 22:00N 30°05' W 093°20'0 0.0
2017-Dec-01 21:30N 30°05' W 093°20'0 0.0
2017-Dec-01 21:00N 30°05' W 093°20'0 0.0
2017-Dec-01 20:30N 30°05' W 093°20'0 0.0
2017-Dec-01 20:00N 30°05' W 093°20'0 0.0
2017-Dec-01 19:30N 30°05' W 093°20'0 0.0
2017-Dec-01 19:00N 30°05' W 093°20'0 0.0
2017-Dec-01 18:30N 30°05' W 093°20'0 0.0
2017-Dec-01 18:00N 30°05' W 093°20'0 0.0
2017-Dec-01 17:30N 30°05' W 093°20'0 0.0
2017-Dec-01 17:00N 30°05' W 093°20'0 0.0
2017-Dec-01 16:30N 30°05' W 093°20'  

Dump ship's entire track history